createdAt,value
2017-07-03T00:01:00.006Z,0
2017-07-03T00:02:01.438Z,0
2017-07-03T00:03:02.865Z,0
2017-07-03T00:04:04.294Z,0
2017-07-03T00:05:05.720Z,0
2017-07-03T00:06:07.150Z,0
2017-07-03T00:07:08.578Z,0
2017-07-03T00:08:10.012Z,0
2017-07-03T00:09:11.450Z,0
2017-07-03T00:10:12.881Z,0
2017-07-03T00:11:14.307Z,0
2017-07-03T00:12:15.741Z,0
2017-07-03T00:13:17.169Z,0
2017-07-03T00:14:18.603Z,0
2017-07-03T00:15:20.030Z,0
2017-07-03T00:16:21.476Z,0
2017-07-03T00:17:22.900Z,0
2017-07-03T00:18:24.333Z,0
2017-07-03T00:19:25.763Z,0
2017-07-03T00:20:27.192Z,0
2017-07-03T00:21:28.617Z,0
2017-07-03T00:22:30.056Z,0
2017-07-03T00:23:31.486Z,0
2017-07-03T00:24:32.911Z,0
2017-07-03T00:25:34.341Z,0
2017-07-03T00:26:35.771Z,0
2017-07-03T00:27:37.206Z,0
2017-07-03T00:28:38.634Z,0
2017-07-03T00:29:40.065Z,0
2017-07-03T00:30:41.490Z,0
2017-07-03T00:31:42.921Z,0
2017-07-03T00:32:44.352Z,0
2017-07-03T00:33:45.783Z,0
2017-07-03T00:34:47.226Z,0
2017-07-03T00:35:48.635Z,0
2017-07-03T00:36:50.065Z,0
2017-07-03T00:37:51.491Z,0
2017-07-03T00:38:52.921Z,0
2017-07-03T00:39:54.354Z,0
2017-07-03T00:40:55.783Z,0
2017-07-03T00:41:57.211Z,0
2017-07-03T00:42:58.645Z,0
2017-07-03T00:44:00.069Z,0
2017-07-03T00:45:01.495Z,0
2017-07-03T00:46:02.925Z,0
2017-07-03T00:47:04.352Z,0
2017-07-03T00:48:05.780Z,0
2017-07-03T00:49:07.208Z,0
2017-07-03T00:50:08.637Z,0
2017-07-03T00:51:10.072Z,0
2017-07-03T00:52:11.503Z,0
2017-07-03T00:53:12.927Z,0
2017-07-03T00:54:14.359Z,0
2017-07-03T00:55:15.784Z,0
2017-07-03T00:56:17.211Z,0
2017-07-03T00:57:18.640Z,0
2017-07-03T00:58:20.073Z,0
2017-07-03T00:59:21.502Z,0
2017-07-03T01:00:22.927Z,0
2017-07-03T01:01:24.370Z,0
2017-07-03T01:02:25.797Z,0
2017-07-03T01:03:27.224Z,0
2017-07-03T01:04:28.650Z,0
2017-07-03T01:05:30.081Z,0
2017-07-03T01:06:31.509Z,0
2017-07-03T01:07:32.937Z,0
2017-07-03T01:08:34.367Z,0
2017-07-03T01:09:35.796Z,0
2017-07-03T01:10:37.224Z,0
2017-07-03T01:11:38.659Z,0
2017-07-03T01:12:40.088Z,0
2017-07-03T01:13:41.520Z,0
2017-07-03T01:14:43.002Z,0
2017-07-03T01:15:44.428Z,0
2017-07-03T01:16:45.856Z,0
2017-07-03T01:17:47.284Z,0
2017-07-03T01:18:48.712Z,0
2017-07-03T01:19:50.142Z,0
2017-07-03T01:20:58.182Z,0
2017-07-03T01:21:59.610Z,0
2017-07-03T01:23:01.036Z,0
2017-07-03T01:24:02.463Z,0
2017-07-03T01:25:03.890Z,0
2017-07-03T01:26:05.320Z,0
2017-07-03T01:27:06.747Z,0
2017-07-03T01:28:08.176Z,0
2017-07-03T01:29:09.603Z,0
2017-07-03T01:30:11.035Z,0
2017-07-03T01:31:12.461Z,0
2017-07-03T01:32:13.890Z,0
2017-07-03T01:33:15.326Z,0
2017-07-03T01:34:16.750Z,0
2017-07-03T01:35:18.185Z,0
2017-07-03T01:36:19.609Z,0
2017-07-03T01:37:21.039Z,0
2017-07-03T01:38:22.472Z,0
2017-07-03T01:39:23.898Z,0
2017-07-03T01:40:25.320Z,0
2017-07-03T01:41:26.754Z,0
2017-07-03T01:42:28.181Z,0
2017-07-03T01:43:29.610Z,0
2017-07-03T01:44:31.040Z,0
2017-07-03T01:45:32.465Z,0
2017-07-03T01:46:33.896Z,0
2017-07-03T01:47:35.320Z,0
2017-07-03T01:48:36.759Z,0
2017-07-03T01:49:38.186Z,0
2017-07-03T01:50:39.615Z,0
2017-07-03T01:51:41.043Z,0
2017-07-03T01:52:42.471Z,0
2017-07-03T01:53:43.903Z,0
2017-07-03T01:54:45.331Z,0
2017-07-03T01:55:46.759Z,0
2017-07-03T01:56:48.187Z,0
2017-07-03T01:57:49.617Z,0
2017-07-03T01:58:51.045Z,0
2017-07-03T01:59:52.477Z,0
2017-07-03T02:00:53.903Z,0
2017-07-03T02:01:55.334Z,0
2017-07-03T02:02:56.759Z,0
2017-07-03T02:03:58.188Z,0
2017-07-03T02:04:59.612Z,0
2017-07-03T02:06:01.043Z,0
2017-07-03T02:07:02.469Z,0
2017-07-03T02:08:03.906Z,0
2017-07-03T02:09:05.335Z,0
2017-07-03T02:10:06.760Z,0
2017-07-03T02:11:08.187Z,0
2017-07-03T02:12:09.617Z,0
2017-07-03T02:13:11.042Z,0
2017-07-03T02:14:12.471Z,0
2017-07-03T02:15:13.898Z,0
2017-07-03T02:16:15.326Z,0
2017-07-03T02:17:16.757Z,0
2017-07-03T02:18:18.184Z,0
2017-07-03T02:19:19.614Z,0
2017-07-03T02:20:21.041Z,0
2017-07-03T02:21:22.469Z,0
2017-07-03T02:22:23.894Z,0
2017-07-03T02:23:25.322Z,0
2017-07-03T02:24:26.750Z,0
2017-07-03T02:25:28.183Z,0
2017-07-03T02:26:29.604Z,0
2017-07-03T02:27:31.016Z,0
2017-07-03T02:28:32.459Z,0
2017-07-03T02:29:33.888Z,0
2017-07-03T02:30:35.316Z,0
2017-07-03T02:31:36.749Z,0
2017-07-03T02:32:38.171Z,0
2017-07-03T02:33:39.598Z,0
2017-07-03T02:34:41.026Z,0
2017-07-03T02:35:42.456Z,0
2017-07-03T02:36:43.884Z,0
2017-07-03T02:37:45.312Z,0
2017-07-03T02:38:46.759Z,0
2017-07-03T02:39:48.186Z,0
2017-07-03T02:40:49.616Z,0
2017-07-03T02:41:51.046Z,0
2017-07-03T02:42:52.473Z,0
2017-07-03T02:43:53.899Z,0
2017-07-03T02:44:55.331Z,0
2017-07-03T02:45:56.766Z,0
2017-07-03T02:46:58.193Z,0
2017-07-03T02:47:59.624Z,0
2017-07-03T02:49:01.049Z,0
2017-07-03T02:50:02.479Z,0
2017-07-03T02:51:03.918Z,0
2017-07-03T02:52:05.347Z,0
2017-07-03T02:53:06.772Z,0
2017-07-03T02:54:08.202Z,0
2017-07-03T02:55:09.629Z,0
2017-07-03T02:56:11.066Z,0
2017-07-03T02:57:12.491Z,0
2017-07-03T02:58:13.921Z,0
2017-07-03T02:59:15.349Z,0
2017-07-03T03:00:16.785Z,0
2017-07-03T03:01:18.210Z,0
2017-07-03T03:02:19.637Z,0
2017-07-03T03:03:21.062Z,0
2017-07-03T03:04:22.502Z,0
2017-07-03T03:05:23.930Z,0
2017-07-03T03:06:25.364Z,0
2017-07-03T03:07:26.792Z,0
2017-07-03T03:08:28.218Z,0
2017-07-03T03:09:29.648Z,0
2017-07-03T03:10:31.078Z,0
2017-07-03T03:11:32.506Z,0
2017-07-03T03:12:33.933Z,0
2017-07-03T03:13:35.359Z,0
2017-07-03T03:14:36.805Z,0
2017-07-03T03:15:38.234Z,0
2017-07-03T03:16:39.663Z,0
2017-07-03T03:17:41.092Z,0
2017-07-03T03:18:42.519Z,0
2017-07-03T03:19:43.956Z,0
2017-07-03T03:20:45.385Z,0
2017-07-03T03:21:46.812Z,0
2017-07-03T03:22:48.241Z,0
2017-07-03T03:23:49.668Z,0
2017-07-03T03:24:51.106Z,0
2017-07-03T03:25:52.528Z,0
2017-07-03T03:26:53.958Z,0
2017-07-03T03:27:55.389Z,0
2017-07-03T03:28:56.819Z,0
2017-07-03T03:29:58.247Z,0
2017-07-03T03:30:59.673Z,0
2017-07-03T03:32:01.100Z,0
2017-07-03T03:33:02.549Z,0
2017-07-03T03:34:03.972Z,0
2017-07-03T03:35:05.399Z,0
2017-07-03T03:36:06.827Z,0
2017-07-03T03:37:08.260Z,0
2017-07-03T03:38:09.687Z,0
2017-07-03T03:39:11.117Z,0
2017-07-03T03:40:12.548Z,0
2017-07-03T03:41:13.973Z,0
2017-07-03T03:42:15.404Z,0
2017-07-03T03:43:16.834Z,0
2017-07-03T03:44:18.264Z,0
2017-07-03T03:45:19.691Z,0
2017-07-03T03:46:21.120Z,0
2017-07-03T03:47:22.554Z,0
2017-07-03T03:48:23.976Z,0
2017-07-03T03:49:25.409Z,0
2017-07-03T03:50:26.834Z,0
2017-07-03T03:51:28.381Z,0
2017-07-03T03:52:29.807Z,0
2017-07-03T03:53:31.235Z,0
2017-07-03T03:54:32.667Z,0
2017-07-03T03:55:34.094Z,0
2017-07-03T03:56:35.525Z,0
2017-07-03T03:57:36.951Z,0
2017-07-03T03:58:38.422Z,0
2017-07-03T03:59:39.858Z,0
2017-07-03T04:00:41.305Z,0
2017-07-03T04:01:42.739Z,0
2017-07-03T04:02:44.164Z,0
2017-07-03T04:03:45.594Z,0
2017-07-03T04:04:47.023Z,0
2017-07-03T04:05:48.481Z,0
2017-07-03T04:06:49.918Z,0
2017-07-03T04:07:51.341Z,0
2017-07-03T04:08:52.781Z,0
2017-07-03T04:09:54.210Z,0
2017-07-03T04:10:55.637Z,0
2017-07-03T04:11:57.069Z,0
2017-07-03T04:12:58.497Z,0
2017-07-03T04:13:59.926Z,0
2017-07-03T04:15:01.357Z,0
2017-07-03T04:16:02.782Z,0
2017-07-03T04:17:04.212Z,0
2017-07-03T04:18:05.645Z,0
2017-07-03T04:19:07.071Z,0
2017-07-03T04:20:08.499Z,0
2017-07-03T04:21:09.925Z,0
2017-07-03T04:22:11.353Z,0
2017-07-03T04:23:12.806Z,0
2017-07-03T04:24:14.235Z,0
2017-07-03T04:25:15.664Z,0
2017-07-03T04:26:17.094Z,0
2017-07-03T04:27:18.522Z,0
2017-07-03T04:28:19.953Z,0
2017-07-03T04:29:21.381Z,0
2017-07-03T04:30:22.810Z,0
2017-07-03T04:31:24.238Z,0
2017-07-03T04:32:25.665Z,0
2017-07-03T04:33:27.096Z,0
2017-07-03T04:34:28.528Z,0
2017-07-03T04:35:29.959Z,0
2017-07-03T04:36:31.390Z,0
2017-07-03T04:37:32.821Z,0
2017-07-03T04:38:34.246Z,0
2017-07-03T04:39:35.675Z,0
2017-07-03T04:40:37.106Z,0
2017-07-03T04:41:38.533Z,0
2017-07-03T04:42:39.964Z,0
2017-07-03T04:43:41.392Z,0
2017-07-03T04:44:42.819Z,0
2017-07-03T04:45:44.252Z,0
2017-07-03T04:46:45.680Z,0
2017-07-03T04:47:47.109Z,0
2017-07-03T04:48:48.537Z,0
2017-07-03T04:49:49.968Z,0
2017-07-03T04:50:51.389Z,0
2017-07-03T04:51:52.832Z,0
2017-07-03T04:52:54.259Z,0
2017-07-03T04:53:55.806Z,0
2017-07-03T04:54:57.229Z,0
2017-07-03T04:55:58.656Z,0
2017-07-03T04:57:00.085Z,0
2017-07-03T04:58:01.514Z,0
2017-07-03T04:59:02.942Z,0
2017-07-03T05:00:04.373Z,0
2017-07-03T05:01:05.805Z,0
2017-07-03T05:02:07.232Z,0
2017-07-03T05:03:08.661Z,0
2017-07-03T05:04:10.092Z,0
2017-07-03T05:05:11.519Z,0
2017-07-03T05:06:12.948Z,0
2017-07-03T05:07:14.378Z,0
2017-07-03T05:08:15.809Z,0
2017-07-03T05:09:17.238Z,0
2017-07-03T05:10:18.667Z,0
2017-07-03T05:11:20.097Z,0
2017-07-03T05:12:21.525Z,0
2017-07-03T05:13:22.954Z,0
2017-07-03T05:14:24.385Z,0
2017-07-03T05:15:25.812Z,0
2017-07-03T05:16:27.241Z,0
2017-07-03T05:17:28.674Z,0
2017-07-03T05:18:30.111Z,0
2017-07-03T05:19:31.539Z,0
2017-07-03T05:20:32.971Z,0
2017-07-03T05:21:34.422Z,0
2017-07-03T05:22:35.840Z,0
2017-07-03T05:23:37.272Z,0
2017-07-03T05:24:38.705Z,0
2017-07-03T05:25:40.133Z,0
2017-07-03T05:26:41.563Z,0
2017-07-03T05:27:42.989Z,0
2017-07-03T05:28:44.419Z,0
2017-07-03T05:29:45.854Z,0
2017-07-03T05:30:47.274Z,0
2017-07-03T05:31:48.708Z,0
2017-07-03T05:32:50.135Z,0
2017-07-03T05:33:51.584Z,0
2017-07-03T05:34:53.018Z,0
2017-07-03T05:35:54.452Z,0
2017-07-03T05:36:55.883Z,0
2017-07-03T05:37:57.321Z,0
2017-07-03T05:38:58.753Z,0
2017-07-03T05:40:00.181Z,0
2017-07-03T05:41:01.607Z,0
2017-07-03T05:42:03.037Z,0
2017-07-03T05:43:04.467Z,0
2017-07-03T05:44:05.892Z,0
2017-07-03T05:45:07.323Z,0
2017-07-03T05:46:08.752Z,0
2017-07-03T05:47:10.212Z,0
2017-07-03T05:48:11.655Z,0
2017-07-03T05:49:13.082Z,0
2017-07-03T05:50:14.510Z,0
2017-07-03T05:51:15.945Z,0
2017-07-03T05:52:17.393Z,0
2017-07-03T05:53:18.825Z,0
2017-07-03T05:54:20.252Z,0
2017-07-03T05:55:21.682Z,0
2017-07-03T05:56:23.107Z,0
2017-07-03T05:57:24.538Z,0
2017-07-03T05:58:25.968Z,0
2017-07-03T05:59:27.399Z,0
2017-07-03T06:00:28.829Z,0
2017-07-03T06:01:30.257Z,0
2017-07-03T06:02:31.687Z,0
2017-07-03T06:03:33.118Z,0
2017-07-03T06:04:34.563Z,0
2017-07-03T06:05:36.001Z,0
2017-07-03T06:06:37.438Z,0
2017-07-03T06:07:38.864Z,0
2017-07-03T06:08:40.292Z,0
2017-07-03T06:09:41.723Z,0
2017-07-03T06:10:43.174Z,0
2017-07-03T06:11:44.591Z,0
2017-07-03T06:12:46.018Z,0
2017-07-03T06:13:47.450Z,0
2017-07-03T06:14:48.878Z,0
2017-07-03T06:15:50.308Z,0
2017-07-03T06:16:51.745Z,0
2017-07-03T06:17:53.179Z,0
2017-07-03T06:18:54.609Z,0
2017-07-03T06:19:56.043Z,0
2017-07-03T06:20:57.462Z,0
2017-07-03T06:21:58.893Z,0
2017-07-03T06:23:00.323Z,0
2017-07-03T06:24:01.752Z,0
2017-07-03T06:25:03.183Z,0
2017-07-03T06:26:04.613Z,0
2017-07-03T06:27:06.043Z,0
2017-07-03T06:28:07.471Z,0
2017-07-03T06:29:08.904Z,0
2017-07-03T06:30:10.332Z,0
2017-07-03T06:31:11.760Z,0
2017-07-03T06:32:13.189Z,0
2017-07-03T06:33:14.619Z,0
2017-07-03T06:34:16.053Z,0
2017-07-03T06:35:17.494Z,0
2017-07-03T06:36:18.926Z,0
2017-07-03T06:37:20.358Z,0
2017-07-03T06:38:21.812Z,0
2017-07-03T06:39:23.237Z,0
2017-07-03T06:40:24.668Z,0
2017-07-03T06:41:26.096Z,0
2017-07-03T06:42:27.522Z,0
2017-07-03T06:43:28.951Z,0
2017-07-03T06:44:30.380Z,0
2017-07-03T06:45:31.814Z,0
2017-07-03T06:46:33.243Z,0
2017-07-03T06:47:34.673Z,0
2017-07-03T06:48:36.104Z,0
2017-07-03T06:49:37.539Z,0
2017-07-03T06:50:38.964Z,0
2017-07-03T06:51:40.394Z,0
2017-07-03T06:52:41.823Z,0
2017-07-03T06:53:43.252Z,0
2017-07-03T06:54:44.679Z,0
2017-07-03T06:55:46.111Z,0
2017-07-03T06:56:47.540Z,0
2017-07-03T06:57:48.971Z,0
2017-07-03T06:58:50.450Z,0
2017-07-03T06:59:51.864Z,0
2017-07-03T07:00:53.292Z,0
2017-07-03T07:01:54.738Z,0
2017-07-03T07:02:56.168Z,0
2017-07-03T07:03:57.601Z,0
2017-07-03T07:04:59.030Z,0
2017-07-03T07:06:00.462Z,0
2017-07-03T07:07:01.914Z,0
2017-07-03T07:08:03.342Z,0
2017-07-03T07:09:04.805Z,0
2017-07-03T07:10:06.236Z,0
2017-07-03T07:11:07.664Z,0
2017-07-03T07:12:09.096Z,0
2017-07-03T07:13:10.523Z,0
2017-07-03T07:14:11.960Z,0
2017-07-03T07:15:13.391Z,0
2017-07-03T07:16:14.823Z,0
2017-07-03T07:17:16.259Z,0
2017-07-03T07:18:17.685Z,0
2017-07-03T07:19:19.114Z,0
2017-07-03T07:20:20.545Z,0
2017-07-03T07:21:21.975Z,0
2017-07-03T07:22:23.404Z,0
2017-07-03T07:23:24.838Z,0
2017-07-03T07:24:26.270Z,0
2017-07-03T07:25:27.701Z,0
2017-07-03T07:26:29.133Z,0
2017-07-03T07:27:30.565Z,0
2017-07-03T07:28:32.081Z,0
2017-07-03T07:29:33.521Z,0
2017-07-03T07:30:34.943Z,0
2017-07-03T07:31:36.381Z,0
2017-07-03T07:32:37.809Z,0
2017-07-03T07:33:39.240Z,0
2017-07-03T07:34:40.681Z,0
2017-07-03T07:35:42.109Z,0
2017-07-03T07:36:43.541Z,0
2017-07-03T07:37:44.971Z,0
2017-07-03T07:38:46.404Z,0
2017-07-03T07:39:47.842Z,0
2017-07-03T07:40:49.274Z,0
2017-07-03T07:41:50.703Z,0
2017-07-03T07:42:52.136Z,0
2017-07-03T07:43:53.567Z,0
2017-07-03T07:44:55.000Z,0
2017-07-03T07:45:56.433Z,0
2017-07-03T07:46:57.864Z,0
2017-07-03T07:47:59.294Z,0
2017-07-03T07:49:00.726Z,0
2017-07-03T07:50:02.161Z,0
2017-07-03T07:51:03.591Z,0
2017-07-03T07:52:05.030Z,0
2017-07-03T07:53:06.452Z,0
2017-07-03T07:54:07.881Z,0
2017-07-03T07:55:09.314Z,0
2017-07-03T07:56:10.745Z,0
2017-07-03T07:57:12.174Z,0
2017-07-03T07:58:13.606Z,0
2017-07-03T07:59:15.034Z,0
2017-07-03T08:00:16.476Z,0
2017-07-03T08:01:17.913Z,0
2017-07-03T08:02:19.343Z,0
2017-07-03T08:03:20.776Z,0
2017-07-03T08:04:22.217Z,0
2017-07-03T08:05:23.649Z,0
2017-07-03T08:06:25.080Z,0
2017-07-03T08:07:26.527Z,0
2017-07-03T08:08:27.949Z,0
2017-07-03T08:09:29.391Z,0
2017-07-03T08:10:30.822Z,0
2017-07-03T08:11:32.254Z,0
2017-07-03T08:12:33.691Z,0
2017-07-03T08:13:35.125Z,0
2017-07-03T08:14:36.557Z,0
2017-07-03T08:15:37.985Z,0
2017-07-03T08:16:39.414Z,0
2017-07-03T08:17:40.860Z,0
2017-07-03T08:18:42.279Z,0
2017-07-03T08:19:43.710Z,0
2017-07-03T08:20:45.146Z,0
2017-07-03T08:21:46.575Z,0
2017-07-03T08:22:48.006Z,0
2017-07-03T08:23:49.454Z,0
2017-07-03T08:24:50.882Z,0
2017-07-03T08:25:52.314Z,0
2017-07-03T08:26:53.746Z,0
2017-07-03T08:27:55.177Z,0
2017-07-03T08:28:56.613Z,0
2017-07-03T08:29:58.040Z,0
2017-07-03T08:30:59.471Z,0
2017-07-03T08:32:00.953Z,0
2017-07-03T08:33:02.368Z,0
2017-07-03T08:34:03.800Z,0
2017-07-03T08:35:05.231Z,0
2017-07-03T08:36:06.667Z,0
2017-07-03T08:37:08.090Z,0
2017-07-03T08:38:09.521Z,0
2017-07-03T08:39:10.951Z,0
2017-07-03T08:40:12.384Z,0
2017-07-03T08:41:13.812Z,0
2017-07-03T08:42:15.245Z,0
2017-07-03T08:43:16.677Z,0
2017-07-03T08:44:18.114Z,0
2017-07-03T08:45:19.545Z,0
2017-07-03T08:46:20.975Z,0
2017-07-03T08:47:22.407Z,0
2017-07-03T08:48:23.836Z,0
2017-07-03T08:49:25.268Z,0
2017-07-03T08:50:26.698Z,0
2017-07-03T08:51:28.130Z,0
2017-07-03T08:52:29.562Z,0
2017-07-03T08:53:30.993Z,0
2017-07-03T08:54:32.425Z,0
2017-07-03T08:55:33.856Z,0
2017-07-03T08:56:35.286Z,0
2017-07-03T08:57:36.720Z,0
2017-07-03T08:58:38.150Z,0
2017-07-03T08:59:39.581Z,0
2017-07-03T09:00:41.012Z,0
2017-07-03T09:01:42.469Z,0
2017-07-03T09:02:43.900Z,0
2017-07-03T09:03:45.328Z,0
2017-07-03T09:04:46.760Z,0
2017-07-03T09:05:48.204Z,0
2017-07-03T09:06:49.632Z,0
2017-07-03T09:07:51.064Z,0
2017-07-03T09:08:52.486Z,0
2017-07-03T09:09:53.925Z,0
2017-07-03T09:10:55.368Z,0
2017-07-03T09:11:56.798Z,0
2017-07-03T09:12:58.254Z,0
2017-07-03T09:13:59.684Z,0
2017-07-03T09:15:01.114Z,0
2017-07-03T09:16:02.547Z,0
2017-07-03T09:17:03.976Z,0
2017-07-03T09:18:05.407Z,0
2017-07-03T09:19:07.756Z,0
2017-07-03T09:20:09.196Z,0
2017-07-03T09:21:10.624Z,0
2017-07-03T09:22:12.056Z,0
2017-07-03T09:23:13.486Z,0
2017-07-03T09:24:14.918Z,0
2017-07-03T09:25:16.348Z,0
2017-07-03T09:26:17.792Z,0
2017-07-03T09:27:19.224Z,0
2017-07-03T09:28:20.656Z,0
2017-07-03T09:29:22.087Z,0
2017-07-03T09:30:23.516Z,0
2017-07-03T09:31:24.947Z,0
2017-07-03T09:32:26.380Z,0
2017-07-03T09:33:27.812Z,0
2017-07-03T09:34:29.241Z,0
2017-07-03T09:35:30.675Z,0
2017-07-03T09:36:32.120Z,0
2017-07-03T09:37:33.546Z,0
2017-07-03T09:38:34.979Z,0
2017-07-03T09:39:36.411Z,0
2017-07-03T09:40:37.842Z,0
2017-07-03T09:41:39.274Z,0
2017-07-03T09:42:40.708Z,0
2017-07-03T09:43:42.141Z,0
2017-07-03T09:44:43.582Z,0
2017-07-03T09:45:45.015Z,0
2017-07-03T09:46:46.446Z,0
2017-07-03T09:47:47.896Z,0
2017-07-03T09:48:49.326Z,0
2017-07-03T09:49:50.757Z,0
2017-07-03T09:50:52.188Z,0
2017-07-03T09:51:53.620Z,0
2017-07-03T09:52:55.055Z,0
2017-07-03T09:53:56.487Z,0
2017-07-03T09:54:57.921Z,0
2017-07-03T09:55:59.354Z,0
2017-07-03T09:57:00.789Z,0
2017-07-03T09:58:02.223Z,0
2017-07-03T09:59:03.659Z,0
2017-07-03T10:00:05.097Z,0
2017-07-03T10:01:06.527Z,0
2017-07-03T10:02:07.957Z,0
2017-07-03T10:03:09.398Z,0
2017-07-03T10:04:10.883Z,0
2017-07-03T10:05:12.312Z,0
2017-07-03T10:06:13.746Z,0
2017-07-03T10:07:15.176Z,0
2017-07-03T10:08:16.611Z,0
2017-07-03T10:09:18.041Z,0
2017-07-03T10:10:19.471Z,0
2017-07-03T10:11:20.905Z,0
2017-07-03T10:12:22.337Z,0
2017-07-03T10:13:26.390Z,0
2017-07-03T10:14:27.778Z,0
2017-07-03T10:15:29.212Z,0
2017-07-03T10:16:30.643Z,5
2017-07-03T10:17:32.073Z,5
2017-07-03T10:18:33.530Z,5
2017-07-03T10:19:34.963Z,5
2017-07-03T10:20:36.396Z,5
2017-07-03T10:21:37.827Z,5
2017-07-03T10:22:39.256Z,5
2017-07-03T10:23:40.689Z,5
2017-07-03T10:24:42.125Z,5
2017-07-03T10:25:43.558Z,5
2017-07-03T10:26:44.989Z,5
2017-07-03T10:27:46.419Z,5
2017-07-03T10:28:47.851Z,5
2017-07-03T10:29:49.283Z,5
2017-07-03T10:30:50.714Z,5
2017-07-03T10:31:52.145Z,5
2017-07-03T10:32:53.578Z,5
2017-07-03T10:33:55.009Z,5
2017-07-03T10:34:56.441Z,5
2017-07-03T10:35:57.873Z,5
2017-07-03T10:36:59.306Z,5
2017-07-03T10:38:00.736Z,5
2017-07-03T10:39:02.169Z,5
2017-07-03T10:40:03.603Z,5
2017-07-03T10:41:05.035Z,5
2017-07-03T10:42:06.468Z,5
2017-07-03T10:43:07.898Z,5
2017-07-03T10:44:09.331Z,5
2017-07-03T10:45:10.764Z,5
2017-07-03T10:46:12.196Z,5
2017-07-03T10:47:13.627Z,5
2017-07-03T10:48:15.059Z,5
2017-07-03T10:49:16.490Z,5
2017-07-03T10:50:17.919Z,5
2017-07-03T10:51:19.363Z,5
2017-07-03T10:52:20.785Z,5
2017-07-03T10:53:22.225Z,5
2017-07-03T10:54:23.659Z,5
2017-07-03T10:55:25.088Z,5
2017-07-03T10:56:26.523Z,5
2017-07-03T10:57:27.954Z,5
2017-07-03T10:58:29.387Z,5
2017-07-03T10:59:30.821Z,5
2017-07-03T11:00:32.251Z,5
2017-07-03T11:01:33.684Z,5
2017-07-03T11:02:35.113Z,5
2017-07-03T11:03:36.546Z,5
2017-07-03T11:04:37.979Z,5
2017-07-03T11:05:39.410Z,5
2017-07-03T11:06:40.842Z,5
2017-07-03T11:07:42.272Z,5
2017-07-03T11:08:43.707Z,5
2017-07-03T11:09:45.139Z,5
2017-07-03T11:10:46.571Z,5
2017-07-03T11:11:48.001Z,5
2017-07-03T11:12:49.435Z,5
2017-07-03T11:13:50.866Z,5
2017-07-03T11:14:52.300Z,5
2017-07-03T11:15:53.732Z,0
2017-07-03T11:16:55.163Z,5
2017-07-03T11:17:56.598Z,5
2017-07-03T11:18:58.028Z,5
2017-07-03T11:19:59.557Z,5
2017-07-03T11:21:00.991Z,5
2017-07-03T11:22:02.422Z,5
2017-07-03T11:23:03.853Z,5
2017-07-03T11:24:05.286Z,5
2017-07-03T11:25:06.720Z,5
2017-07-03T11:26:08.150Z,5
2017-07-03T11:27:09.587Z,5
2017-07-03T11:28:11.020Z,5
2017-07-03T11:29:12.450Z,5
2017-07-03T11:30:13.921Z,5
2017-07-03T11:31:15.352Z,5
2017-07-03T11:32:16.787Z,5
2017-07-03T11:33:18.219Z,10
2017-07-03T11:34:19.651Z,5
2017-07-03T11:35:21.085Z,5
2017-07-03T11:36:22.519Z,10
2017-07-03T11:37:23.949Z,5
2017-07-03T11:38:25.385Z,5
2017-07-03T11:39:26.815Z,5
2017-07-03T11:40:28.247Z,5
2017-07-03T11:41:29.680Z,5
2017-07-03T11:42:31.131Z,5
2017-07-03T11:43:32.568Z,5
2017-07-03T11:44:34.003Z,5
2017-07-03T11:45:35.436Z,5
2017-07-03T11:46:36.871Z,5
2017-07-03T11:47:38.303Z,5
2017-07-03T11:48:39.734Z,5
2017-07-03T11:49:41.165Z,5
2017-07-03T11:50:42.599Z,5
2017-07-03T11:51:44.031Z,5
2017-07-03T11:52:45.466Z,10
2017-07-03T11:53:46.899Z,10
2017-07-03T11:54:48.332Z,10
2017-07-03T11:55:49.764Z,5
2017-07-03T11:56:51.196Z,10
2017-07-03T11:57:52.629Z,5
2017-07-03T11:58:54.064Z,10
2017-07-03T11:59:55.496Z,10
2017-07-03T12:00:56.932Z,10
2017-07-03T12:01:58.376Z,10
2017-07-03T12:02:59.799Z,15
2017-07-03T12:04:01.230Z,15
2017-07-03T12:05:02.664Z,15
2017-07-03T12:06:04.100Z,15
2017-07-03T12:07:05.532Z,15
2017-07-03T12:08:06.967Z,15
2017-07-03T12:09:08.401Z,15
2017-07-03T12:10:09.836Z,15
2017-07-03T12:11:11.267Z,15
2017-07-03T12:12:12.704Z,15
2017-07-03T12:13:14.134Z,15
2017-07-03T12:14:15.569Z,10
2017-07-03T12:15:17.008Z,15
2017-07-03T12:16:18.444Z,20
2017-07-03T12:17:19.880Z,20
2017-07-03T12:18:21.372Z,20
2017-07-03T12:19:22.773Z,20
2017-07-03T12:20:24.236Z,25
2017-07-03T12:21:25.674Z,25
2017-07-03T12:22:27.111Z,25
2017-07-03T12:23:28.544Z,25
2017-07-03T12:24:29.981Z,25
2017-07-03T12:25:31.413Z,20
2017-07-03T12:26:32.847Z,20
2017-07-03T12:27:34.282Z,20
2017-07-03T12:28:35.715Z,20
2017-07-03T12:29:37.150Z,20
2017-07-03T12:30:38.580Z,15
2017-07-03T12:31:40.018Z,15
2017-07-03T12:32:41.451Z,15
2017-07-03T12:33:42.886Z,15
2017-07-03T12:34:44.319Z,15
2017-07-03T12:35:45.754Z,15
2017-07-03T12:36:47.187Z,15
2017-07-03T12:37:48.620Z,15
2017-07-03T12:38:50.068Z,15
2017-07-03T12:39:51.504Z,15
2017-07-03T12:40:52.938Z,15
2017-07-03T12:41:54.367Z,15
2017-07-03T12:42:55.806Z,15
2017-07-03T12:43:57.243Z,15
2017-07-03T12:44:58.675Z,15
2017-07-03T12:46:00.110Z,15
2017-07-03T12:47:01.544Z,20
2017-07-03T12:48:02.975Z,20
2017-07-03T12:49:04.411Z,15
2017-07-03T12:50:05.847Z,15
2017-07-03T12:51:07.283Z,20
2017-07-03T12:52:08.717Z,20
2017-07-03T12:53:10.156Z,25
2017-07-03T12:54:11.593Z,25
2017-07-03T12:55:13.029Z,30
2017-07-03T12:56:14.464Z,25
2017-07-03T12:57:15.898Z,20
2017-07-03T12:58:17.343Z,25
2017-07-03T12:59:18.772Z,35
2017-07-03T13:00:20.207Z,30
2017-07-03T13:01:21.642Z,35
2017-07-03T13:02:23.078Z,30
2017-07-03T13:03:24.512Z,20
2017-07-03T13:04:25.947Z,15
2017-07-03T13:05:27.381Z,15
2017-07-03T13:06:28.814Z,25
2017-07-03T13:07:30.250Z,15
2017-07-03T13:08:31.696Z,15
2017-07-03T13:09:33.130Z,15
2017-07-03T13:10:34.564Z,10
2017-07-03T13:11:36.000Z,10
2017-07-03T13:12:37.432Z,10
2017-07-03T13:13:38.867Z,20
2017-07-03T13:14:40.302Z,30
2017-07-03T13:15:41.742Z,140
2017-07-03T13:16:43.185Z,135
2017-07-03T13:17:44.626Z,110
2017-07-03T13:18:46.065Z,140
2017-07-03T13:19:47.500Z,155
2017-07-03T13:20:48.936Z,105
2017-07-03T13:21:50.373Z,120
2017-07-03T13:22:51.809Z,25
2017-07-03T13:23:53.245Z,20
2017-07-03T13:24:54.679Z,20
2017-07-03T13:25:56.115Z,40
2017-07-03T13:26:57.550Z,110
2017-07-03T13:27:58.985Z,50
2017-07-03T13:29:00.422Z,70
2017-07-03T13:30:01.862Z,90
2017-07-03T13:31:03.302Z,80
2017-07-03T13:32:04.738Z,150
2017-07-03T13:33:06.176Z,130
2017-07-03T13:34:07.613Z,70
2017-07-03T13:35:09.047Z,35
2017-07-03T13:36:10.483Z,30
2017-07-03T13:37:11.919Z,45
2017-07-03T13:38:13.357Z,55
2017-07-03T13:39:14.795Z,185
2017-07-03T13:40:16.228Z,170
2017-07-03T13:41:17.665Z,190
2017-07-03T13:42:19.101Z,75
2017-07-03T13:43:20.540Z,125
2017-07-03T13:44:21.987Z,110
2017-07-03T13:45:23.422Z,70
2017-07-03T13:46:24.861Z,70
2017-07-03T13:47:26.323Z,40
2017-07-03T13:48:27.734Z,25
2017-07-03T13:49:29.169Z,20
2017-07-03T13:50:30.604Z,15
2017-07-03T13:51:32.044Z,15
2017-07-03T13:52:33.482Z,20
2017-07-03T13:53:34.918Z,25
2017-07-03T13:54:36.356Z,20
2017-07-03T13:55:37.790Z,15
2017-07-03T13:56:39.224Z,15
2017-07-03T13:57:40.660Z,10
2017-07-03T13:58:42.107Z,10
2017-07-03T13:59:43.541Z,10
2017-07-03T14:00:44.977Z,10
2017-07-03T14:01:46.414Z,10
2017-07-03T14:02:47.849Z,10
2017-07-03T14:03:49.283Z,10
2017-07-03T14:04:50.719Z,15
2017-07-03T14:05:52.154Z,15
2017-07-03T14:06:53.589Z,15
2017-07-03T14:07:55.024Z,15
2017-07-03T14:08:56.456Z,25
2017-07-03T14:09:57.894Z,15
2017-07-03T14:10:59.329Z,15
2017-07-03T14:12:00.764Z,15
2017-07-03T14:13:02.200Z,15
2017-07-03T14:14:03.635Z,10
2017-07-03T14:15:05.079Z,10
2017-07-03T14:16:06.510Z,10
2017-07-03T14:17:07.947Z,10
2017-07-03T14:18:09.381Z,15
2017-07-03T14:19:10.820Z,15
2017-07-03T14:20:12.257Z,20
2017-07-03T14:21:13.691Z,25
2017-07-03T14:22:15.127Z,35
2017-07-03T14:23:16.566Z,45
2017-07-03T14:24:18.013Z,30
2017-07-03T14:25:19.441Z,25
2017-07-03T14:26:20.882Z,55
2017-07-03T14:27:22.347Z,175
2017-07-03T14:28:23.761Z,145
2017-07-03T14:29:25.201Z,225
2017-07-03T14:30:26.634Z,240
2017-07-03T14:31:28.071Z,190
2017-07-03T14:32:29.508Z,50
2017-07-03T14:33:30.943Z,55
2017-07-03T14:34:32.382Z,235
2017-07-03T14:35:33.821Z,145
2017-07-03T14:36:35.256Z,60
2017-07-03T14:37:36.712Z,25
2017-07-03T14:38:38.131Z,30
2017-07-03T14:39:39.576Z,20
2017-07-03T14:40:41.017Z,15
2017-07-03T14:41:42.466Z,65
2017-07-03T14:42:43.943Z,55
2017-07-03T14:43:45.379Z,30
2017-07-03T14:44:46.817Z,20
2017-07-03T14:45:48.268Z,15
2017-07-03T14:46:49.706Z,10
2017-07-03T14:47:51.144Z,5
2017-07-03T14:48:52.583Z,5
2017-07-03T14:49:54.018Z,5
2017-07-03T14:50:55.495Z,5
2017-07-03T14:51:56.887Z,5
2017-07-03T14:52:58.321Z,5
2017-07-03T14:53:59.761Z,5
2017-07-03T14:55:01.201Z,10
2017-07-03T14:56:02.634Z,10
2017-07-03T14:57:04.144Z,10
2017-07-03T14:58:05.580Z,10
2017-07-03T14:59:07.014Z,10
2017-07-03T15:00:08.449Z,10
2017-07-03T15:01:09.883Z,15